sensor_id;sensor_type;location;lat;lon;timestamp;temperature;humidity
18839;DHT22;9548;56.920;14.804;2022-12-18T00:00:48;-1.50;99.90
18839;DHT22;9548;56.920;14.804;2022-12-18T00:03:15;-1.40;99.90
18839;DHT22;9548;56.920;14.804;2022-12-18T00:05:46;-1.30;99.90
18839;DHT22;9548;56.920;14.804;2022-12-18T00:08:14;-1.30;99.90
18839;DHT22;9548;56.920;14.804;2022-12-18T00:10:41;-1.30;99.90
18839;DHT22;9548;56.920;14.804;2022-12-18T00:13:08;-1.30;99.90
18839;DHT22;9548;56.920;14.804;2022-12-18T00:15:37;-1.30;99.90
18839;DHT22;9548;56.920;14.804;2022-12-18T00:18:05;-1.30;99.90
18839;DHT22;9548;56.920;14.804;2022-12-18T00:20:35;-1.30;99.90
18839;DHT22;9548;56.920;14.804;2022-12-18T00:23:02;-1.30;99.90
18839;DHT22;9548;56.920;14.804;2022-12-18T00:25:29;-1.30;99.90
18839;DHT22;9548;56.920;14.804;2022-12-18T00:27:58;-1.20;99.90
18839;DHT22;9548;56.920;14.804;2022-12-18T00:30:25;-1.20;99.90
18839;DHT22;9548;56.920;14.804;2022-12-18T00:32:54;-1.10;99.90
18839;DHT22;9548;56.920;14.804;2022-12-18T00:35:21;-1.10;99.90
18839;DHT22;9548;56.920;14.804;2022-12-18T00:37:48;-1.10;99.90
18839;DHT22;9548;56.920;14.804;2022-12-18T00:40:15;-1.10;99.90
18839;DHT22;9548;56.920;14.804;2022-12-18T00:42:41;-1.00;99.90
18839;DHT22;9548;56.920;14.804;2022-12-18T00:45:25;-1.00;99.90
18839;DHT22;9548;56.920;14.804;2022-12-18T00:47:54;-1.10;99.90
18839;DHT22;9548;56.920;14.804;2022-12-18T00:50:21;-1.10;99.90
18839;DHT22;9548;56.920;14.804;2022-12-18T00:52:49;-1.20;99.90
18839;DHT22;9548;56.920;14.804;2022-12-18T00:55:16;-1.20;99.90
18839;DHT22;9548;56.920;14.804;2022-12-18T00:57:43;-1.30;99.90
18839;DHT22;9548;56.920;14.804;2022-12-18T01:00:12;-1.30;99.90
18839;DHT22;9548;56.920;14.804;2022-12-18T01:02:40;-1.40;99.90
18839;DHT22;9548;56.920;14.804;2022-12-18T01:05:10;-1.60;99.90
18839;DHT22;9548;56.920;14.804;2022-12-18T01:07:37;-1.70;99.90
18839;DHT22;9548;56.920;14.804;2022-12-18T01:10:06;-1.70;99.90
18839;DHT22;9548;56.920;14.804;2022-12-18T01:12:34;-1.80;99.90
18839;DHT22;9548;56.920;14.804;2022-12-18T01:15:01;-1.90;99.90
18839;DHT22;9548;56.920;14.804;2022-12-18T01:17:28;-1.90;99.90
18839;DHT22;9548;56.920;14.804;2022-12-18T01:19:55;-1.90;99.90
18839;DHT22;9548;56.920;14.804;2022-12-18T01:22:24;-2.00;99.90
18839;DHT22;9548;56.920;14.804;2022-12-18T01:24:51;-2.10;99.90
18839;DHT22;9548;56.920;14.804;2022-12-18T01:27:18;-2.10;99.90
18839;DHT22;9548;56.920;14.804;2022-12-18T01:29:45;-2.10;99.90
18839;DHT22;9548;56.920;14.804;2022-12-18T01:32:12;-2.20;99.90
18839;DHT22;9548;56.920;14.804;2022-12-18T01:34:39;-2.20;99.90
18839;DHT22;9548;56.920;14.804;2022-12-18T01:37:06;-2.30;99.90
18839;DHT22;9548;56.920;14.804;2022-12-18T01:39:34;-2.40;99.90
18839;DHT22;9548;56.920;14.804;2022-12-18T01:42:10;-2.40;99.90
18839;DHT22;9548;56.920;14.804;2022-12-18T01:45:06;-2.40;99.90
18839;DHT22;9548;56.920;14.804;2022-12-18T01:47:36;-2.50;99.90
18839;DHT22;9548;56.920;14.804;2022-12-18T01:50:07;-2.50;99.90
18839;DHT22;9548;56.920;14.804;2022-12-18T01:52:35;-2.60;99.90
18839;DHT22;9548;56.920;14.804;2022-12-18T01:55:07;-2.60;99.90
18839;DHT22;9548;56.920;14.804;2022-12-18T01:57:35;-2.60;99.90
18839;DHT22;9548;56.920;14.804;2022-12-18T02:00:06;-2.70;99.90
18839;DHT22;9548;56.920;14.804;2022-12-18T02:02:33;-2.80;99.90
18839;DHT22;9548;56.920;14.804;2022-12-18T02:05:00;-2.80;99.90
18839;DHT22;9548;56.920;14.804;2022-12-18T02:07:35;-2.90;99.90
18839;DHT22;9548;56.920;14.804;2022-12-18T02:10:13;-2.90;99.90
18839;DHT22;9548;56.920;14.804;2022-12-18T02:12:45;-2.90;99.90
18839;DHT22;9548;56.920;14.804;2022-12-18T02:15:19;-3.00;99.90
18839;DHT22;9548;56.920;14.804;2022-12-18T02:17:51;-3.00;99.90
18839;DHT22;9548;56.920;14.804;2022-12-18T02:20:22;-3.00;99.90
18839;DHT22;9548;56.920;14.804;2022-12-18T02:23:09;-3.00;99.90
18839;DHT22;9548;56.920;14.804;2022-12-18T02:26:07;-3.00;99.90
18839;DHT22;9548;56.920;14.804;2022-12-18T02:28:39;-3.00;99.90
18839;DHT22;9548;56.920;14.804;2022-12-18T02:31:11;-3.00;99.90
18839;DHT22;9548;56.920;14.804;2022-12-18T02:33:40;-3.00;99.90
18839;DHT22;9548;56.920;14.804;2022-12-18T02:36:08;-3.10;99.90
18839;DHT22;9548;56.920;14.804;2022-12-18T02:38:36;-3.10;99.90
18839;DHT22;9548;56.920;14.804;2022-12-18T02:41:04;-3.10;99.90
18839;DHT22;9548;56.920;14.804;2022-12-18T02:43:33;-3.10;99.90
18839;DHT22;9548;56.920;14.804;2022-12-18T02:46:28;-3.10;99.90
18839;DHT22;9548;56.920;14.804;2022-12-18T02:49:15;-3.20;99.90
18839;DHT22;9548;56.920;14.804;2022-12-18T02:51:49;-3.20;99.90
18839;DHT22;9548;56.920;14.804;2022-12-18T02:54:25;-3.20;99.90
18839;DHT22;9548;56.920;14.804;2022-12-18T02:56:58;-3.20;99.90
18839;DHT22;9548;56.920;14.804;2022-12-18T02:59:36;-3.20;99.90
18839;DHT22;9548;56.920;14.804;2022-12-18T03:02:18;-3.20;99.90
18839;DHT22;9548;56.920;14.804;2022-12-18T03:04:49;-3.30;99.90
18839;DHT22;9548;56.920;14.804;2022-12-18T03:07:21;-3.30;99.90
18839;DHT22;9548;56.920;14.804;2022-12-18T03:09:50;-3.30;99.90
18839;DHT22;9548;56.920;14.804;2022-12-18T03:12:22;-3.30;99.90
18839;DHT22;9548;56.920;14.804;2022-12-18T03:14:59;-3.30;99.90
18839;DHT22;9548;56.920;14.804;2022-12-18T03:17:31;-3.40;99.90
18839;DHT22;9548;56.920;14.804;2022-12-18T03:20:02;-3.40;99.90
18839;DHT22;9548;56.920;14.804;2022-12-18T03:22:32;-3.40;99.90
18839;DHT22;9548;56.920;14.804;2022-12-18T03:25:00;-3.40;99.90
18839;DHT22;9548;56.920;14.804;2022-12-18T03:27:29;-3.40;99.90
18839;DHT22;9548;56.920;14.804;2022-12-18T03:30:03;-3.40;99.90
18839;DHT22;9548;56.920;14.804;2022-12-18T03:32:38;-3.40;99.90
18839;DHT22;9548;56.920;14.804;2022-12-18T03:35:08;-3.40;99.90
18839;DHT22;9548;56.920;14.804;2022-12-18T03:37:36;-3.40;99.90
18839;DHT22;9548;56.920;14.804;2022-12-18T03:40:04;-3.40;99.90
18839;DHT22;9548;56.920;14.804;2022-12-18T03:42:37;-3.40;99.90
18839;DHT22;9548;56.920;14.804;2022-12-18T03:45:10;-3.40;99.90
18839;DHT22;9548;56.920;14.804;2022-12-18T03:47:43;-3.40;99.90
18839;DHT22;9548;56.920;14.804;2022-12-18T03:50:15;-3.40;99.90
18839;DHT22;9548;56.920;14.804;2022-12-18T03:52:48;-3.40;99.90
18839;DHT22;9548;56.920;14.804;2022-12-18T03:55:17;-3.30;99.90
18839;DHT22;9548;56.920;14.804;2022-12-18T03:57:45;-3.30;99.90
18839;DHT22;9548;56.920;14.804;2022-12-18T04:00:17;-3.30;99.90
18839;DHT22;9548;56.920;14.804;2022-12-18T04:02:47;-3.30;99.90
18839;DHT22;9548;56.920;14.804;2022-12-18T04:05:15;-3.30;99.90
18839;DHT22;9548;56.920;14.804;2022-12-18T04:07:45;-3.20;99.90
18839;DHT22;9548;56.920;14.804;2022-12-18T04:10:13;-3.20;99.90
18839;DHT22;9548;56.920;14.804;2022-12-18T04:12:42;-3.10;99.90
18839;DHT22;9548;56.920;14.804;2022-12-18T04:15:09;-3.10;99.90
18839;DHT22;9548;56.920;14.804;2022-12-18T04:17:38;-3.10;99.90
18839;DHT22;9548;56.920;14.804;2022-12-18T04:20:09;-3.10;99.90
18839;DHT22;9548;56.920;14.804;2022-12-18T04:22:36;-3.10;99.90
18839;DHT22;9548;56.920;14.804;2022-12-18T04:25:04;-3.10;99.90
18839;DHT22;9548;56.920;14.804;2022-12-18T04:27:31;-3.00;99.90
18839;DHT22;9548;56.920;14.804;2022-12-18T04:29:58;-3.00;99.90
18839;DHT22;9548;56.920;14.804;2022-12-18T04:32:25;-3.00;99.90
18839;DHT22;9548;56.920;14.804;2022-12-18T04:34:53;-3.00;99.90
18839;DHT22;9548;56.920;14.804;2022-12-18T04:37:20;-3.00;99.90
18839;DHT22;9548;56.920;14.804;2022-12-18T04:39:47;-3.00;99.90
18839;DHT22;9548;56.920;14.804;2022-12-18T04:42:14;-2.90;99.90
18839;DHT22;9548;56.920;14.804;2022-12-18T04:44:41;-2.80;99.90
18839;DHT22;9548;56.920;14.804;2022-12-18T04:47:08;-2.80;99.90
18839;DHT22;9548;56.920;14.804;2022-12-18T04:49:35;-2.80;99.90
18839;DHT22;9548;56.920;14.804;2022-12-18T04:52:03;-2.70;99.90
18839;DHT22;9548;56.920;14.804;2022-12-18T04:54:30;-2.70;99.90
18839;DHT22;9548;56.920;14.804;2022-12-18T04:56:57;-2.70;99.90
18839;DHT22;9548;56.920;14.804;2022-12-18T04:59:24;-2.60;99.90
18839;DHT22;9548;56.920;14.804;2022-12-18T05:01:51;-2.70;99.90
18839;DHT22;9548;56.920;14.804;2022-12-18T05:04:18;-2.60;99.90
18839;DHT22;9548;56.920;14.804;2022-12-18T05:06:45;-2.60;99.90
18839;DHT22;9548;56.920;14.804;2022-12-18T05:09:14;-2.60;99.90
18839;DHT22;9548;56.920;14.804;2022-12-18T05:11:41;-2.50;99.90
18839;DHT22;9548;56.920;14.804;2022-12-18T05:14:08;-2.50;99.90
18839;DHT22;9548;56.920;14.804;2022-12-18T05:16:35;-2.50;99.90
18839;DHT22;9548;56.920;14.804;2022-12-18T05:19:02;-2.40;99.90
18839;DHT22;9548;56.920;14.804;2022-12-18T05:21:28;-2.40;99.90
18839;DHT22;9548;56.920;14.804;2022-12-18T05:23:56;-2.40;99.90
18839;DHT22;9548;56.920;14.804;2022-12-18T05:26:24;-2.40;99.90
18839;DHT22;9548;56.920;14.804;2022-12-18T05:28:51;-2.40;99.90
18839;DHT22;9548;56.920;14.804;2022-12-18T05:31:18;-2.40;99.90
18839;DHT22;9548;56.920;14.804;2022-12-18T05:33:45;-2.30;99.90
18839;DHT22;9548;56.920;14.804;2022-12-18T05:36:11;-2.20;99.90
18839;DHT22;9548;56.920;14.804;2022-12-18T05:38:39;-2.10;99.90
18839;DHT22;9548;56.920;14.804;2022-12-18T05:41:07;-2.10;99.90
18839;DHT22;9548;56.920;14.804;2022-12-18T05:43:36;-2.00;99.90
18839;DHT22;9548;56.920;14.804;2022-12-18T05:46:05;-2.00;99.90
18839;DHT22;9548;56.920;14.804;2022-12-18T05:48:32;-1.90;99.90
18839;DHT22;9548;56.920;14.804;2022-12-18T05:51:04;-1.90;99.90
18839;DHT22;9548;56.920;14.804;2022-12-18T05:53:31;-1.80;99.90
18839;DHT22;9548;56.920;14.804;2022-12-18T05:56:00;-1.80;99.90
18839;DHT22;9548;56.920;14.804;2022-12-18T05:58:28;-1.80;99.90
18839;DHT22;9548;56.920;14.804;2022-12-18T06:00:56;-1.70;99.90
18839;DHT22;9548;56.920;14.804;2022-12-18T06:03:24;-1.70;99.90
18839;DHT22;9548;56.920;14.804;2022-12-18T06:05:51;-1.70;99.90
18839;DHT22;9548;56.920;14.804;2022-12-18T06:08:18;-1.70;99.90
18839;DHT22;9548;56.920;14.804;2022-12-18T06:10:50;-1.60;99.90
18839;DHT22;9548;56.920;14.804;2022-12-18T06:13:18;-1.60;99.90
18839;DHT22;9548;56.920;14.804;2022-12-18T06:15:45;-1.60;99.90
18839;DHT22;9548;56.920;14.804;2022-12-18T06:18:13;-1.60;99.90
18839;DHT22;9548;56.920;14.804;2022-12-18T06:20:40;-1.60;99.90
18839;DHT22;9548;56.920;14.804;2022-12-18T06:23:07;-1.50;99.90
18839;DHT22;9548;56.920;14.804;2022-12-18T06:25:38;-1.50;99.90
18839;DHT22;9548;56.920;14.804;2022-12-18T06:28:05;-1.40;99.90
18839;DHT22;9548;56.920;14.804;2022-12-18T06:30:32;-1.40;99.90
18839;DHT22;9548;56.920;14.804;2022-12-18T06:32:59;-1.30;99.90
18839;DHT22;9548;56.920;14.804;2022-12-18T06:35:27;-1.30;99.90
18839;DHT22;9548;56.920;14.804;2022-12-18T06:37:54;-1.30;99.90
18839;DHT22;9548;56.920;14.804;2022-12-18T06:40:21;-1.30;99.90
18839;DHT22;9548;56.920;14.804;2022-12-18T06:42:48;-1.20;99.90
18839;DHT22;9548;56.920;14.804;2022-12-18T06:45:15;-1.20;99.90
18839;DHT22;9548;56.920;14.804;2022-12-18T06:47:42;-1.10;99.90
18839;DHT22;9548;56.920;14.804;2022-12-18T06:50:09;-1.10;99.90
18839;DHT22;9548;56.920;14.804;2022-12-18T06:52:38;-1.10;99.90
18839;DHT22;9548;56.920;14.804;2022-12-18T06:55:10;-1.10;99.90
18839;DHT22;9548;56.920;14.804;2022-12-18T06:57:37;-1.10;99.90
18839;DHT22;9548;56.920;14.804;2022-12-18T07:00:07;-1.10;99.90
18839;DHT22;9548;56.920;14.804;2022-12-18T07:02:34;-1.00;99.90
18839;DHT22;9548;56.920;14.804;2022-12-18T07:05:01;-1.00;99.90
18839;DHT22;9548;56.920;14.804;2022-12-18T07:07:28;-1.00;99.90
18839;DHT22;9548;56.920;14.804;2022-12-18T07:09:57;-1.00;99.90
18839;DHT22;9548;56.920;14.804;2022-12-18T07:12:24;-1.00;99.90
18839;DHT22;9548;56.920;14.804;2022-12-18T07:14:51;-1.00;99.90
18839;DHT22;9548;56.920;14.804;2022-12-18T07:17:18;-1.00;99.90
18839;DHT22;9548;56.920;14.804;2022-12-18T07:19:45;-0.90;99.90
18839;DHT22;9548;56.920;14.804;2022-12-18T07:22:12;-0.90;99.90
18839;DHT22;9548;56.920;14.804;2022-12-18T07:24:39;-1.00;99.90
18839;DHT22;9548;56.920;14.804;2022-12-18T07:27:07;-1.00;99.90
18839;DHT22;9548;56.920;14.804;2022-12-18T07:29:34;-1.10;99.90
18839;DHT22;9548;56.920;14.804;2022-12-18T07:32:01;-1.10;99.90
18839;DHT22;9548;56.920;14.804;2022-12-18T07:34:28;-1.10;99.90
18839;DHT22;9548;56.920;14.804;2022-12-18T07:36:55;-1.20;99.90
18839;DHT22;9548;56.920;14.804;2022-12-18T07:39:22;-1.20;99.90
18839;DHT22;9548;56.920;14.804;2022-12-18T07:41:49;-1.20;99.90
18839;DHT22;9548;56.920;14.804;2022-12-18T07:44:37;-1.20;99.90
18839;DHT22;9548;56.920;14.804;2022-12-18T07:47:04;-1.20;99.90
18839;DHT22;9548;56.920;14.804;2022-12-18T07:49:31;-1.20;99.90
18839;DHT22;9548;56.920;14.804;2022-12-18T07:51:58;-1.30;99.90
18839;DHT22;9548;56.920;14.804;2022-12-18T07:54:25;-1.30;99.90
18839;DHT22;9548;56.920;14.804;2022-12-18T07:56:52;-1.30;99.90
18839;DHT22;9548;56.920;14.804;2022-12-18T07:59:19;-1.20;99.90
18839;DHT22;9548;56.920;14.804;2022-12-18T08:01:47;-1.20;99.90
18839;DHT22;9548;56.920;14.804;2022-12-18T08:04:14;-1.20;99.90
18839;DHT22;9548;56.920;14.804;2022-12-18T08:06:41;-1.20;99.90
18839;DHT22;9548;56.920;14.804;2022-12-18T08:09:10;-1.20;99.90
18839;DHT22;9548;56.920;14.804;2022-12-18T08:11:37;-1.10;99.90
18839;DHT22;9548;56.920;14.804;2022-12-18T08:14:04;-1.10;99.90
18839;DHT22;9548;56.920;14.804;2022-12-18T08:16:31;-1.10;99.90
18839;DHT22;9548;56.920;14.804;2022-12-18T08:18:59;-1.10;99.90
18839;DHT22;9548;56.920;14.804;2022-12-18T08:21:28;-1.00;99.90
18839;DHT22;9548;56.920;14.804;2022-12-18T08:23:57;-1.00;99.90
18839;DHT22;9548;56.920;14.804;2022-12-18T08:26:26;-1.00;99.90
18839;DHT22;9548;56.920;14.804;2022-12-18T08:28:54;-0.90;99.90
18839;DHT22;9548;56.920;14.804;2022-12-18T08:31:22;-0.90;99.90
18839;DHT22;9548;56.920;14.804;2022-12-18T08:33:51;-0.80;99.90
18839;DHT22;9548;56.920;14.804;2022-12-18T08:36:20;-0.80;99.90
18839;DHT22;9548;56.920;14.804;2022-12-18T08:38:47;-0.70;99.90
18839;DHT22;9548;56.920;14.804;2022-12-18T08:41:15;-0.70;99.90
18839;DHT22;9548;56.920;14.804;2022-12-18T08:43:43;-0.70;99.90
18839;DHT22;9548;56.920;14.804;2022-12-18T08:46:33;-0.60;99.90
18839;DHT22;9548;56.920;14.804;2022-12-18T08:49:00;-0.60;99.90
18839;DHT22;9548;56.920;14.804;2022-12-18T08:51:29;-0.60;99.90
18839;DHT22;9548;56.920;14.804;2022-12-18T08:53:55;-0.60;99.90
18839;DHT22;9548;56.920;14.804;2022-12-18T08:56:23;-0.60;99.90
18839;DHT22;9548;56.920;14.804;2022-12-18T08:58:51;-0.60;99.90
18839;DHT22;9548;56.920;14.804;2022-12-18T09:01:19;-0.50;99.90
18839;DHT22;9548;56.920;14.804;2022-12-18T09:03:46;-0.50;99.90
18839;DHT22;9548;56.920;14.804;2022-12-18T09:06:14;-0.50;99.90
18839;DHT22;9548;56.920;14.804;2022-12-18T09:08:43;-0.50;99.90
18839;DHT22;9548;56.920;14.804;2022-12-18T09:11:14;-0.50;99.90
18839;DHT22;9548;56.920;14.804;2022-12-18T09:13:41;-0.50;99.90
18839;DHT22;9548;56.920;14.804;2022-12-18T09:16:08;-0.50;99.90
18839;DHT22;9548;56.920;14.804;2022-12-18T09:18:35;-0.50;99.90
18839;DHT22;9548;56.920;14.804;2022-12-18T09:21:08;-0.50;99.90
18839;DHT22;9548;56.920;14.804;2022-12-18T09:23:35;-0.50;99.90
18839;DHT22;9548;56.920;14.804;2022-12-18T09:26:04;-0.50;99.90
18839;DHT22;9548;56.920;14.804;2022-12-18T09:28:31;-0.40;99.90
18839;DHT22;9548;56.920;14.804;2022-12-18T09:30:58;-0.40;99.90
18839;DHT22;9548;56.920;14.804;2022-12-18T09:33:25;-0.40;99.90
18839;DHT22;9548;56.920;14.804;2022-12-18T09:35:52;-0.40;99.90
18839;DHT22;9548;56.920;14.804;2022-12-18T09:38:19;-0.40;99.90
18839;DHT22;9548;56.920;14.804;2022-12-18T09:40:50;-0.30;99.90
18839;DHT22;9548;56.920;14.804;2022-12-18T09:43:21;-0.30;99.90
18839;DHT22;9548;56.920;14.804;2022-12-18T09:45:56;-0.30;99.90
18839;DHT22;9548;56.920;14.804;2022-12-18T09:48:37;-0.30;99.90
18839;DHT22;9548;56.920;14.804;2022-12-18T09:51:13;-0.30;99.90
18839;DHT22;9548;56.920;14.804;2022-12-18T09:53:41;-0.30;99.90
18839;DHT22;9548;56.920;14.804;2022-12-18T09:56:15;-0.20;99.90
18839;DHT22;9548;56.920;14.804;2022-12-18T09:58:47;-0.20;99.90
18839;DHT22;9548;56.920;14.804;2022-12-18T10:01:20;-0.10;99.90
18839;DHT22;9548;56.920;14.804;2022-12-18T10:03:48;-0.20;99.90
18839;DHT22;9548;56.920;14.804;2022-12-18T10:06:20;-0.10;99.90
18839;DHT22;9548;56.920;14.804;2022-12-18T10:08:53;0.00;99.90
18839;DHT22;9548;56.920;14.804;2022-12-18T10:11:32;0.00;99.90
18839;DHT22;9548;56.920;14.804;2022-12-18T10:14:09;0.00;99.90
18839;DHT22;9548;56.920;14.804;2022-12-18T10:16:44;0.00;99.90
18839;DHT22;9548;56.920;14.804;2022-12-18T10:19:40;0.00;99.90
18839;DHT22;9548;56.920;14.804;2022-12-18T10:22:21;0.10;99.90
18839;DHT22;9548;56.920;14.804;2022-12-18T10:24:54;0.00;99.90
18839;DHT22;9548;56.920;14.804;2022-12-18T10:27:25;0.00;99.90
18839;DHT22;9548;56.920;14.804;2022-12-18T10:29:54;0.00;99.90
18839;DHT22;9548;56.920;14.804;2022-12-18T10:32:23;0.10;99.90
18839;DHT22;9548;56.920;14.804;2022-12-18T10:34:53;0.10;99.90
18839;DHT22;9548;56.920;14.804;2022-12-18T10:37:21;0.10;99.90
18839;DHT22;9548;56.920;14.804;2022-12-18T10:40:07;0.10;99.90
18839;DHT22;9548;56.920;14.804;2022-12-18T10:42:35;0.10;99.90
18839;DHT22;9548;56.920;14.804;2022-12-18T10:45:09;0.20;99.90
18839;DHT22;9548;56.920;14.804;2022-12-18T10:47:37;0.20;99.90
18839;DHT22;9548;56.920;14.804;2022-12-18T10:50:18;0.30;99.90
18839;DHT22;9548;56.920;14.804;2022-12-18T10:52:53;0.30;99.90
18839;DHT22;9548;56.920;14.804;2022-12-18T10:55:21;0.30;99.90
18839;DHT22;9548;56.920;14.804;2022-12-18T10:57:48;0.40;99.90
18839;DHT22;9548;56.920;14.804;2022-12-18T11:00:26;0.40;99.90
18839;DHT22;9548;56.920;14.804;2022-12-18T11:02:54;0.50;99.90
18839;DHT22;9548;56.920;14.804;2022-12-18T11:05:27;0.50;99.90
18839;DHT22;9548;56.920;14.804;2022-12-18T11:07:55;0.50;99.90
18839;DHT22;9548;56.920;14.804;2022-12-18T11:10:27;0.50;99.90
18839;DHT22;9548;56.920;14.804;2022-12-18T11:12:54;0.50;99.90
18839;DHT22;9548;56.920;14.804;2022-12-18T11:15:26;0.50;99.90
18839;DHT22;9548;56.920;14.804;2022-12-18T11:17:55;0.50;99.90
18839;DHT22;9548;56.920;14.804;2022-12-18T11:20:31;0.40;99.90
18839;DHT22;9548;56.920;14.804;2022-12-18T11:23:00;0.50;99.90
18839;DHT22;9548;56.920;14.804;2022-12-18T11:25:31;0.60;99.90
18839;DHT22;9548;56.920;14.804;2022-12-18T11:28:01;0.60;99.90
18839;DHT22;9548;56.920;14.804;2022-12-18T11:30:31;0.60;99.90
18839;DHT22;9548;56.920;14.804;2022-12-18T11:33:04;0.60;99.90
18839;DHT22;9548;56.920;14.804;2022-12-18T11:35:39;0.60;99.90
18839;DHT22;9548;56.920;14.804;2022-12-18T11:38:16;0.60;99.90
18839;DHT22;9548;56.920;14.804;2022-12-18T11:40:47;0.60;99.90
18839;DHT22;9548;56.920;14.804;2022-12-18T11:43:20;0.60;99.90
18839;DHT22;9548;56.920;14.804;2022-12-18T11:45:53;0.60;99.90
18839;DHT22;9548;56.920;14.804;2022-12-18T11:48:23;0.50;99.90
18839;DHT22;9548;56.920;14.804;2022-12-18T11:50:53;0.60;99.90
18839;DHT22;9548;56.920;14.804;2022-12-18T11:53:22;0.50;99.90
18839;DHT22;9548;56.920;14.804;2022-12-18T11:56:01;0.60;99.90
18839;DHT22;9548;56.920;14.804;2022-12-18T11:58:40;0.60;99.90
18839;DHT22;9548;56.920;14.804;2022-12-18T12:01:19;0.60;99.90
18839;DHT22;9548;56.920;14.804;2022-12-18T12:06:49;0.50;99.90
18839;DHT22;9548;56.920;14.804;2022-12-18T12:09:27;0.50;99.90
18839;DHT22;9548;56.920;14.804;2022-12-18T12:12:10;0.50;99.90
18839;DHT22;9548;56.920;14.804;2022-12-18T12:14:47;0.50;99.90
18839;DHT22;9548;56.920;14.804;2022-12-18T12:17:26;0.50;99.90
18839;DHT22;9548;56.920;14.804;2022-12-18T12:20:01;0.60;99.90
18839;DHT22;9548;56.920;14.804;2022-12-18T12:22:37;0.50;99.90
18839;DHT22;9548;56.920;14.804;2022-12-18T12:25:18;0.50;99.90
18839;DHT22;9548;56.920;14.804;2022-12-18T12:27:52;0.60;99.90
18839;DHT22;9548;56.920;14.804;2022-12-18T12:30:27;0.50;99.90
18839;DHT22;9548;56.920;14.804;2022-12-18T12:33:08;0.60;99.90
18839;DHT22;9548;56.920;14.804;2022-12-18T12:35:47;0.60;99.90
18839;DHT22;9548;56.920;14.804;2022-12-18T12:38:21;0.50;99.90
18839;DHT22;9548;56.920;14.804;2022-12-18T12:40:52;0.50;99.90
18839;DHT22;9548;56.920;14.804;2022-12-18T12:43:27;0.50;99.90
18839;DHT22;9548;56.920;14.804;2022-12-18T12:45:56;0.50;99.90
18839;DHT22;9548;56.920;14.804;2022-12-18T12:48:36;0.50;99.90
18839;DHT22;9548;56.920;14.804;2022-12-18T12:51:12;0.50;99.90
18839;DHT22;9548;56.920;14.804;2022-12-18T12:53:41;0.50;99.90
18839;DHT22;9548;56.920;14.804;2022-12-18T12:56:11;0.50;99.90
18839;DHT22;9548;56.920;14.804;2022-12-18T12:58:46;0.60;99.90
18839;DHT22;9548;56.920;14.804;2022-12-18T13:01:22;0.50;99.90
18839;DHT22;9548;56.920;14.804;2022-12-18T13:04:03;0.60;99.90
18839;DHT22;9548;56.920;14.804;2022-12-18T13:06:42;0.60;99.90
18839;DHT22;9548;56.920;14.804;2022-12-18T13:09:11;0.60;99.90
18839;DHT22;9548;56.920;14.804;2022-12-18T13:11:39;0.60;99.90
18839;DHT22;9548;56.920;14.804;2022-12-18T13:14:28;0.50;99.90
18839;DHT22;9548;56.920;14.804;2022-12-18T13:17:29;0.50;99.90
18839;DHT22;9548;56.920;14.804;2022-12-18T13:20:18;0.50;99.90
18839;DHT22;9548;56.920;14.804;2022-12-18T13:22:47;0.40;99.90
18839;DHT22;9548;56.920;14.804;2022-12-18T13:25:34;0.40;99.90
18839;DHT22;9548;56.920;14.804;2022-12-18T13:28:10;0.40;99.90
18839;DHT22;9548;56.920;14.804;2022-12-18T13:30:47;0.30;99.90
18839;DHT22;9548;56.920;14.804;2022-12-18T13:33:47;0.40;99.90
18839;DHT22;9548;56.920;14.804;2022-12-18T13:36:27;0.30;99.90
18839;DHT22;9548;56.920;14.804;2022-12-18T13:39:21;0.30;99.90
18839;DHT22;9548;56.920;14.804;2022-12-18T13:41:50;0.30;99.90
18839;DHT22;9548;56.920;14.804;2022-12-18T13:44:31;0.30;99.90
18839;DHT22;9548;56.920;14.804;2022-12-18T13:46:59;0.30;99.90
18839;DHT22;9548;56.920;14.804;2022-12-18T13:49:30;0.30;99.90
18839;DHT22;9548;56.920;14.804;2022-12-18T13:52:15;0.30;99.90
18839;DHT22;9548;56.920;14.804;2022-12-18T13:54:47;0.40;99.90
18839;DHT22;9548;56.920;14.804;2022-12-18T13:57:26;0.30;99.90
18839;DHT22;9548;56.920;14.804;2022-12-18T13:59:54;0.40;99.90
18839;DHT22;9548;56.920;14.804;2022-12-18T14:02:23;0.50;99.90
18839;DHT22;9548;56.920;14.804;2022-12-18T14:04:51;0.40;99.90
18839;DHT22;9548;56.920;14.804;2022-12-18T14:07:21;0.30;99.90
18839;DHT22;9548;56.920;14.804;2022-12-18T14:09:50;0.40;99.90
18839;DHT22;9548;56.920;14.804;2022-12-18T14:12:20;0.40;99.90
18839;DHT22;9548;56.920;14.804;2022-12-18T14:15:14;0.30;99.90
18839;DHT22;9548;56.920;14.804;2022-12-18T14:17:47;0.30;99.90
18839;DHT22;9548;56.920;14.804;2022-12-18T14:20:15;0.40;99.90
18839;DHT22;9548;56.920;14.804;2022-12-18T14:22:46;0.30;99.90
18839;DHT22;9548;56.920;14.804;2022-12-18T14:25:18;0.40;99.90
18839;DHT22;9548;56.920;14.804;2022-12-18T14:27:48;0.40;99.90
18839;DHT22;9548;56.920;14.804;2022-12-18T14:30:30;0.30;99.90
18839;DHT22;9548;56.920;14.804;2022-12-18T14:33:04;0.30;99.90
18839;DHT22;9548;56.920;14.804;2022-12-18T14:35:32;0.40;99.90
18839;DHT22;9548;56.920;14.804;2022-12-18T14:38:21;0.40;99.90
18839;DHT22;9548;56.920;14.804;2022-12-18T14:40:53;0.30;99.90
18839;DHT22;9548;56.920;14.804;2022-12-18T14:43:20;0.30;99.90
18839;DHT22;9548;56.920;14.804;2022-12-18T14:45:48;0.30;99.90
18839;DHT22;9548;56.920;14.804;2022-12-18T14:48:17;0.30;99.90
18839;DHT22;9548;56.920;14.804;2022-12-18T14:50:45;0.30;99.90
18839;DHT22;9548;56.920;14.804;2022-12-18T14:53:23;0.30;99.90
18839;DHT22;9548;56.920;14.804;2022-12-18T14:55:53;0.20;99.90
18839;DHT22;9548;56.920;14.804;2022-12-18T14:58:20;0.30;99.90
18839;DHT22;9548;56.920;14.804;2022-12-18T15:00:47;0.30;99.90
18839;DHT22;9548;56.920;14.804;2022-12-18T15:03:18;0.30;99.90
18839;DHT22;9548;56.920;14.804;2022-12-18T15:05:45;0.30;99.90
18839;DHT22;9548;56.920;14.804;2022-12-18T15:08:34;0.30;99.90
18839;DHT22;9548;56.920;14.804;2022-12-18T15:11:01;0.30;99.90
18839;DHT22;9548;56.920;14.804;2022-12-18T15:13:28;0.30;99.90
18839;DHT22;9548;56.920;14.804;2022-12-18T15:15:56;0.30;99.90
18839;DHT22;9548;56.920;14.804;2022-12-18T15:18:30;0.20;99.90
18839;DHT22;9548;56.920;14.804;2022-12-18T15:21:03;0.20;99.90
18839;DHT22;9548;56.920;14.804;2022-12-18T15:23:37;0.20;99.90
18839;DHT22;9548;56.920;14.804;2022-12-18T15:26:13;0.20;99.90
18839;DHT22;9548;56.920;14.804;2022-12-18T15:28:44;0.20;99.90
18839;DHT22;9548;56.920;14.804;2022-12-18T15:31:29;0.20;99.90
18839;DHT22;9548;56.920;14.804;2022-12-18T15:34:11;0.20;99.90
18839;DHT22;9548;56.920;14.804;2022-12-18T15:36:39;0.10;99.90
18839;DHT22;9548;56.920;14.804;2022-12-18T15:39:11;0.10;99.90
18839;DHT22;9548;56.920;14.804;2022-12-18T15:41:38;0.10;99.90
18839;DHT22;9548;56.920;14.804;2022-12-18T15:44:22;0.00;99.90
18839;DHT22;9548;56.920;14.804;2022-12-18T15:46:48;0.00;99.90
18839;DHT22;9548;56.920;14.804;2022-12-18T15:49:15;0.00;99.90
18839;DHT22;9548;56.920;14.804;2022-12-18T15:51:42;0.00;99.90
18839;DHT22;9548;56.920;14.804;2022-12-18T15:54:13;0.00;99.90
18839;DHT22;9548;56.920;14.804;2022-12-18T15:56:42;0.00;99.90
18839;DHT22;9548;56.920;14.804;2022-12-18T15:59:27;-0.10;99.90
18839;DHT22;9548;56.920;14.804;2022-12-18T16:01:54;-0.30;99.90